Time,TemperatureF,DewpointF,PressureIn,WindDirection,WindDirectionDegrees,WindSpeedMPH,WindSpeedGustMPH,Humidity,HourlyPrecipIn,Conditions,Clouds,dailyrainin,SoftwareType,DateUTC
2014-12-18 00:00:00,27.0,27.0,29.91,West,268,0.0,0.0,100,0.00,,,0.00,Wunderground v.1.12,2014-12-18 07:00:00,
2014-12-18 00:10:00,27.8,27.8,29.91,West,268,0.0,0.0,100,0.00,,,0.00,Wunderground v.1.12,2014-12-18 07:10:00,
2014-12-18 00:15:00,27.6,27.6,29.91,West,268,0.0,0.0,100,0.00,,,0.00,Wunderground v.1.12,2014-12-18 07:15:00,
2014-12-18 00:20:00,27.8,27.8,29.91,West,269,0.0,0.0,100,0.00,,,0.00,Wunderground v.1.12,2014-12-18 07:20:00,
2014-12-18 00:25:00,27.7,27.7,29.91,West,269,0.0,0.0,100,0.00,,,0.00,Wunderground v.1.12,2014-12-18 07:25:00,
2014-12-18 00:30:00,28.2,28.2,29.91,West,269,0.0,0.0,100,0.00,,,0.00,Wunderground v.1.12,2014-12-18 07:30:00,
2014-12-18 00:35:00,27.5,27.5,29.91,West,268,0.0,0.0,100,0.00,,,0.00,Wunderground v.1.12,2014-12-18 07:35:00,
2014-12-18 00:45:00,27.6,27.6,29.91,West,268,0.0,0.0,100,0.00,,,0.00,Wunderground v.1.12,2014-12-18 07:45:00,
2014-12-18 00:50:00,27.8,27.8,29.91,West,268,0.0,0.0,100,0.00,,,0.00,Wunderground v.1.12,2014-12-18 07:50:00,
2014-12-18 00:55:00,28.1,28.1,29.91,West,268,0.0,0.0,100,0.00,,,0.00,Wunderground v.1.12,2014-12-18 07:55:00,
2014-12-18 01:00:00,28.0,28.0,29.91,West,269,0.0,0.0,100,0.00,,,0.00,Wunderground v.1.12,2014-12-18 08:00:00,
2014-12-18 01:10:00,28.3,28.3,29.91,West,269,0.0,0.0,100,0.00,,,0.00,Wunderground v.1.12,2014-12-18 08:10:00,
2014-12-18 01:15:00,28.1,28.1,29.91,West,269,0.0,0.0,100,0.00,,,0.00,Wunderground v.1.12,2014-12-18 08:15:00,
2014-12-18 01:20:00,27.9,27.9,29.91,West,268,0.0,0.0,100,0.00,,,0.00,Wunderground v.1.12,2014-12-18 08:20:00,
2014-12-18 01:25:00,27.8,27.8,29.90,West,269,0.0,0.0,100,0.00,,,0.00,Wunderground v.1.12,2014-12-18 08:25:00,
2014-12-18 01:30:00,28.6,28.6,29.91,West,269,0.0,0.0,100,0.00,,,0.00,Wunderground v.1.12,2014-12-18 08:30:00,
2014-12-18 01:35:00,27.8,27.8,29.91,West,270,0.0,0.0,100,0.00,,,0.00,Wunderground v.1.12,2014-12-18 08:35:00,
2014-12-18 01:45:00,28.0,28.0,29.91,West,268,0.0,0.0,100,0.00,,,0.00,Wunderground v.1.12,2014-12-18 08:45:00,
2014-12-18 01:50:00,27.9,27.9,29.91,West,268,0.0,0.0,100,0.00,,,0.00,Wunderground v.1.12,2014-12-18 08:50:00,
2014-12-18 01:55:00,27.9,27.9,29.91,West,268,0.0,0.0,100,0.00,,,0.00,Wunderground v.1.12,2014-12-18 08:55:00,
2014-12-18 02:00:00,27.8,27.8,29.91,West,269,0.0,0.0,100,0.00,,,0.00,Wunderground v.1.12,2014-12-18 09:00:00,
2014-12-18 02:10:00,28.4,28.4,29.91,West,269,0.0,0.0,100,0.00,,,0.00,Wunderground v.1.12,2014-12-18 09:10:00,
2014-12-18 02:15:00,27.5,27.5,29.91,West,267,0.0,0.0,100,0.00,,,0.00,Wunderground v.1.12,2014-12-18 09:15:00,
2014-12-18 02:20:00,28.4,28.4,29.91,West,269,0.0,0.0,100,0.00,,,0.00,Wunderground v.1.12,2014-12-18 09:20:00,
2014-12-18 02:25:00,28.5,28.5,29.91,West,269,0.0,0.0,100,0.00,,,0.00,Wunderground v.1.12,2014-12-18 09:25:00,
2014-12-18 02:30:00,28.4,28.4,29.91,West,267,0.0,0.0,100,0.00,,,0.00,Wunderground v.1.12,2014-12-18 09:30:00,
2014-12-18 02:35:00,28.2,28.2,29.91,West,269,0.0,0.0,100,0.00,,,0.00,Wunderground v.1.12,2014-12-18 09:35:00,
2014-12-18 02:45:00,28.8,28.8,29.91,West,269,0.0,0.0,100,0.00,,,0.00,Wunderground v.1.12,2014-12-18 09:45:00,
2014-12-18 02:55:00,28.7,28.7,29.91,West,268,0.0,0.0,100,0.00,,,0.00,Wunderground v.1.12,2014-12-18 09:55:00,
2014-12-18 03:00:00,28.5,28.5,29.91,West,268,0.0,0.0,100,0.00,,,0.00,Wunderground v.1.12,2014-12-18 10:00:00,
2014-12-18 03:05:00,28.5,28.5,29.91,West,268,0.0,0.0,100,0.00,,,0.00,Wunderground v.1.12,2014-12-18 10:05:00,
2014-12-18 03:10:00,28.4,28.4,29.91,West,268,0.0,0.0,100,0.00,,,0.00,Wunderground v.1.12,2014-12-18 10:10:00,
2014-12-18 03:15:00,28.2,28.2,29.91,West,269,0.0,0.0,100,0.00,,,0.00,Wunderground v.1.12,2014-12-18 10:15:00,
2014-12-18 03:20:00,28.6,28.6,29.91,West,268,0.0,0.0,100,0.00,,,0.00,Wunderground v.1.12,2014-12-18 10:20:00,
2014-12-18 03:30:00,28.8,28.8,29.91,West,268,0.0,0.0,100,0.00,,,0.00,Wunderground v.1.12,2014-12-18 10:30:00,
2014-12-18 03:35:00,28.7,28.7,29.91,West,269,0.0,0.0,100,0.00,,,0.00,Wunderground v.1.12,2014-12-18 10:35:00,
2014-12-18 03:40:00,28.3,28.3,29.91,West,268,0.0,0.0,100,0.00,,,0.00,Wunderground v.1.12,2014-12-18 10:40:00,
2014-12-18 03:45:00,28.4,28.4,29.91,West,269,0.0,0.0,100,0.00,,,0.00,Wunderground v.1.12,2014-12-18 10:45:00,
2014-12-18 03:50:00,28.5,28.5,29.91,West,268,0.0,0.0,100,0.00,,,0.00,Wunderground v.1.12,2014-12-18 10:50:00,
2014-12-18 03:55:00,28.6,28.6,29.91,West,268,0.0,0.0,100,0.00,,,0.00,Wunderground v.1.12,2014-12-18 10:55:00,
2014-12-18 04:05:00,28.1,28.1,29.91,West,269,0.0,0.0,100,0.00,,,0.00,Wunderground v.1.12,2014-12-18 11:05:00,
2014-12-18 04:10:00,28.5,28.5,29.91,West,267,0.0,0.0,100,0.00,,,0.00,Wunderground v.1.12,2014-12-18 11:10:00,
2014-12-18 04:15:00,28.5,28.5,29.91,West,268,0.0,0.0,100,0.00,,,0.00,Wunderground v.1.12,2014-12-18 11:15:00,
2014-12-18 04:20:00,28.2,28.2,29.91,West,268,0.0,0.0,100,0.00,,,0.00,Wunderground v.1.12,2014-12-18 11:20:00,
2014-12-18 04:25:00,28.7,28.7,29.91,West,269,0.0,0.0,100,0.00,,,0.00,Wunderground v.1.12,2014-12-18 11:25:00,
2014-12-18 04:30:00,28.4,28.4,29.91,West,268,0.0,0.0,100,0.00,,,0.00,Wunderground v.1.12,2014-12-18 11:30:00,
2014-12-18 04:40:00,28.4,28.4,29.91,West,269,0.0,0.0,100,0.00,,,0.00,Wunderground v.1.12,2014-12-18 11:40:00,
2014-12-18 04:45:00,27.8,27.8,29.91,West,268,0.0,0.0,100,0.00,,,0.00,Wunderground v.1.12,2014-12-18 11:45:00,
2014-12-18 04:50:00,28.7,28.7,29.91,West,269,0.0,0.0,100,0.00,,,0.00,Wunderground v.1.12,2014-12-18 11:50:00,
2014-12-18 04:55:00,27.9,27.9,29.91,West,268,0.0,0.0,100,0.00,,,0.00,Wunderground v.1.12,2014-12-18 11:55:00,
2014-12-18 05:00:00,28.3,28.3,29.91,West,269,0.0,0.0,100,0.00,,,0.00,Wunderground v.1.12,2014-12-18 12:00:00,
2014-12-18 05:05:00,28.1,28.1,29.91,West,269,0.0,0.0,100,0.00,,,0.00,Wunderground v.1.12,2014-12-18 12:05:00,
2014-12-18 05:15:00,28.7,28.7,29.91,West,269,0.0,0.0,100,0.00,,,0.00,Wunderground v.1.12,2014-12-18 12:15:00,
2014-12-18 05:20:00,28.9,28.9,29.91,West,268,0.0,0.0,100,0.00,,,0.00,Wunderground v.1.12,2014-12-18 12:20:00,
2014-12-18 05:25:00,28.6,28.6,29.91,West,269,0.0,0.0,100,0.00,,,0.00,Wunderground v.1.12,2014-12-18 12:25:00,
2014-12-18 05:30:00,28.9,28.9,29.90,West,269,0.0,0.0,100,0.00,,,0.00,Wunderground v.1.12,2014-12-18 12:30:00,
2014-12-18 05:35:00,28.8,28.8,29.91,West,268,0.0,0.0,100,0.00,,,0.00,Wunderground v.1.12,2014-12-18 12:35:00,
2014-12-18 05:40:00,28.7,28.7,29.91,West,268,0.0,0.0,100,0.00,,,0.00,Wunderground v.1.12,2014-12-18 12:40:00,
2014-12-18 05:50:00,28.4,28.4,29.91,West,268,0.0,0.0,100,0.00,,,0.00,Wunderground v.1.12,2014-12-18 12:50:00,
2014-12-18 05:55:00,28.3,28.3,29.91,West,269,0.0,0.0,100,0.00,,,0.00,Wunderground v.1.12,2014-12-18 12:55:00,
2014-12-18 06:00:00,28.3,28.3,29.91,West,269,0.0,0.0,100,0.00,,,0.00,Wunderground v.1.12,2014-12-18 13:00:00,
2014-12-18 06:05:00,27.9,27.9,29.91,West,268,0.0,0.0,100,0.00,,,0.00,Wunderground v.1.12,2014-12-18 13:05:00,
2014-12-18 06:10:00,28.8,28.8,29.91,West,268,0.0,0.0,100,0.00,,,0.00,Wunderground v.1.12,2014-12-18 13:10:00,
2014-12-18 06:15:00,28.6,28.6,29.91,West,269,0.0,0.0,100,0.00,,,0.00,Wunderground v.1.12,2014-12-18 13:15:00,
2014-12-18 06:25:00,28.0,28.0,29.90,West,269,0.0,0.0,100,0.00,,,0.00,Wunderground v.1.12,2014-12-18 13:25:00,
2014-12-18 06:30:00,28.2,28.2,29.91,West,269,0.0,0.0,100,0.00,,,0.00,Wunderground v.1.12,2014-12-18 13:30:00,
2014-12-18 06:35:00,28.8,28.8,29.91,West,268,0.0,0.0,100,0.00,,,0.00,Wunderground v.1.12,2014-12-18 13:35:00,
2014-12-18 06:40:00,28.6,28.6,29.91,West,269,0.0,0.0,100,0.00,,,0.00,Wunderground v.1.12,2014-12-18 13:40:00,
2014-12-18 06:45:00,28.2,28.2,29.91,West,268,0.0,0.0,100,0.00,,,0.00,Wunderground v.1.12,2014-12-18 13:45:00,
2014-12-18 06:50:00,28.6,28.6,29.91,West,269,0.0,0.0,100,0.00,,,0.00,Wunderground v.1.12,2014-12-18 13:50:00,
2014-12-18 07:00:00,29.0,29.0,29.91,West,268,0.0,0.0,100,0.00,,,0.00,Wunderground v.1.12,2014-12-18 14:00:00,
2014-12-18 07:05:00,28.8,28.8,29.91,West,269,0.0,0.0,100,0.00,,,0.00,Wunderground v.1.12,2014-12-18 14:05:00,
2014-12-18 07:10:00,28.6,28.6,29.91,West,269,0.0,0.0,100,0.00,,,0.00,Wunderground v.1.12,2014-12-18 14:10:00,
2014-12-18 07:15:00,28.6,28.6,29.91,West,268,0.0,0.0,100,0.00,,,0.00,Wunderground v.1.12,2014-12-18 14:15:00,
2014-12-18 07:20:00,28.5,28.5,29.91,West,269,0.0,0.0,100,0.00,,,0.00,Wunderground v.1.12,2014-12-18 14:20:00,
2014-12-18 07:25:00,28.5,28.5,29.91,West,268,0.0,0.0,100,0.00,,,0.00,Wunderground v.1.12,2014-12-18 14:25:00,
2014-12-18 07:35:00,28.7,28.7,29.91,West,268,0.0,0.0,100,0.00,,,0.00,Wunderground v.1.12,2014-12-18 14:35:00,
2014-12-18 07:40:00,28.7,28.7,29.91,West,269,0.0,0.0,100,0.00,,,0.00,Wunderground v.1.12,2014-12-18 14:40:00,
2014-12-18 07:45:00,28.5,28.5,29.91,West,269,0.0,0.0,100,0.00,,,0.00,Wunderground v.1.12,2014-12-18 14:45:00,
2014-12-18 07:50:00,29.1,29.1,29.91,West,269,0.0,0.0,100,0.00,,,0.00,Wunderground v.1.12,2014-12-18 14:50:00,
2014-12-18 07:55:00,28.4,28.4,29.91,West,268,0.0,0.0,100,0.00,,,0.00,Wunderground v.1.12,2014-12-18 14:55:00,
2014-12-18 08:00:00,28.7,28.7,29.91,West,269,0.0,0.0,100,0.00,,,0.00,Wunderground v.1.12,2014-12-18 15:00:00,
2014-12-18 08:05:00,28.2,28.2,29.91,West,268,0.0,0.0,100,0.00,,,0.00,Wunderground v.1.12,2014-12-18 15:05:00,
2014-12-18 08:15:00,29.2,29.2,29.90,West,268,0.0,0.0,100,0.00,,,0.00,Wunderground v.1.12,2014-12-18 15:15:00,
2014-12-18 08:20:00,28.1,28.1,29.91,West,269,0.0,0.0,100,0.00,,,0.00,Wunderground v.1.12,2014-12-18 15:20:00,
2014-12-18 08:25:00,28.2,28.2,29.90,West,268,0.0,0.0,100,0.00,,,0.00,Wunderground v.1.12,2014-12-18 15:25:00,
2014-12-18 08:30:00,28.3,28.3,29.91,West,268,0.0,0.0,100,0.00,,,0.00,Wunderground v.1.12,2014-12-18 15:30:00,
2014-12-18 08:35:00,28.4,28.4,29.91,West,268,0.0,0.0,100,0.00,,,0.00,Wunderground v.1.12,2014-12-18 15:35:00,
2014-12-18 08:45:00,28.6,28.6,29.91,West,268,0.0,0.0,100,0.00,,,0.00,Wunderground v.1.12,2014-12-18 15:45:00,
2014-12-18 08:50:00,28.9,28.9,29.91,West,269,0.0,0.0,100,0.00,,,0.00,Wunderground v.1.12,2014-12-18 15:50:00,
2014-12-18 08:55:00,29.1,29.1,29.91,West,269,0.0,0.0,100,0.00,,,0.00,Wunderground v.1.12,2014-12-18 15:55:00,
2014-12-18 09:00:00,28.7,28.7,29.91,West,269,0.0,0.0,100,0.00,,,0.00,Wunderground v.1.12,2014-12-18 16:00:00,
2014-12-18 09:05:00,28.2,28.2,29.91,West,268,0.0,0.0,100,0.00,,,0.00,Wunderground v.1.12,2014-12-18 16:05:00,
2014-12-18 09:10:00,28.7,28.7,29.91,West,268,0.0,0.0,100,0.00,,,0.00,Wunderground v.1.12,2014-12-18 16:10:00,
2014-12-18 09:20:00,28.9,28.9,29.91,West,268,0.0,0.0,100,0.00,,,0.00,Wunderground v.1.12,2014-12-18 16:20:00,
2014-12-18 09:25:00,28.3,28.3,29.91,West,269,0.0,0.0,100,0.00,,,0.00,Wunderground v.1.12,2014-12-18 16:25:00,
2014-12-18 09:30:00,29.2,29.2,29.91,West,267,0.0,0.0,100,0.00,,,0.00,Wunderground v.1.12,2014-12-18 16:30:00,
2014-12-18 09:35:00,28.5,28.5,29.91,West,267,0.0,0.0,100,0.00,,,0.00,Wunderground v.1.12,2014-12-18 16:35:00,
2014-12-18 09:40:00,29.3,29.3,29.91,West,268,0.0,0.0,100,0.00,,,0.00,Wunderground v.1.12,2014-12-18 16:40:00,
2014-12-18 09:45:00,29.2,29.2,29.91,West,269,0.0,0.0,100,0.00,,,0.00,Wunderground v.1.12,2014-12-18 16:45:00,
2014-12-18 09:55:00,29.3,29.3,29.91,West,269,0.0,0.0,100,0.00,,,0.00,Wunderground v.1.12,2014-12-18 16:55:00,
2014-12-18 10:00:00,29.5,29.5,29.91,West,268,0.0,0.0,100,0.00,,,0.00,Wunderground v.1.12,2014-12-18 17:00:00,